Time;durP1;ratioP1;P1;durP2;ratioP2;P2;SDS_P1;SDS_P2;PMS_P1;PMS_P2;Temp;Humidity;BMP_temperature;BMP_pressure;BME280_temperature;BME280_humidity;BME280_pressure;Samples;Min_cycle;Max_cycle;Signal;HPM_P1;HPM_P2
2023/11/03 00:01:33;;;;;;;4.30;2.10;;;;;;;12.07;73.84;100398.13;107604;1252;99103;-61
2023/11/03 00:04:06;;;;;;;6.80;2.70;;;;;;;12.10;73.65;100394.06;107583;1251;112520;-61
2023/11/03 00:06:41;;;;;;;2.80;1.60;;;;;;;12.12;73.44;100391.18;107632;1253;109797;-61
2023/11/03 00:09:14;;;;;;;4.00;2.20;;;;;;;12.12;73.31;100383.59;107607;1253;107615;-62
2023/11/03 00:11:45;;;;;;;2.40;1.90;;;;;;;12.10;73.28;100380.38;107677;1253;99185;-62
2023/11/03 00:14:13;;;;;;;4.20;1.90;;;;;;;12.08;73.35;100375.38;107630;1251;99161;-62
2023/11/03 00:16:41;;;;;;;2.80;1.90;;;;;;;12.06;73.33;100374.32;107637;1251;113062;-62
2023/11/03 00:19:10;;;;;;;3.00;2.00;;;;;;;12.09;73.49;100375.31;107535;1253;111040;-60
2023/11/03 00:21:38;;;;;;;5.20;2.10;;;;;;;12.11;73.35;100377.20;107640;1252;107956;-61
2023/11/03 00:24:08;;;;;;;3.10;2.10;;;;;;;12.14;73.32;100372.77;107643;1251;99342;-61
2023/11/03 00:26:36;;;;;;;2.00;1.80;;;;;;;12.18;73.38;100370.46;107635;1254;99695;-62
2023/11/03 00:29:07;;;;;;;3.30;1.80;;;;;;;12.22;73.47;100367.64;107631;1251;111820;-61
2023/11/03 00:31:35;;;;;;;8.00;2.20;;;;;;;12.26;73.32;100361.18;107633;1250;110019;-62
2023/11/03 00:34:05;;;;;;;2.50;1.70;;;;;;;12.29;73.38;100363.40;107572;1256;107911;-61
2023/11/03 00:36:33;;;;;;;2.80;1.60;;;;;;;12.34;73.18;100365.39;107585;1252;99185;-61
2023/11/03 00:39:01;;;;;;;3.70;1.90;;;;;;;12.36;73.04;100362.67;107608;1250;99075;-62
2023/11/03 00:41:30;;;;;;;4.00;2.20;;;;;;;12.40;72.86;100356.14;107538;1251;113776;-62
2023/11/03 00:43:58;;;;;;;3.30;1.90;;;;;;;12.42;72.72;100354.32;107426;1251;111492;-62
2023/11/03 00:46:27;;;;;;;2.80;1.70;;;;;;;12.43;72.67;100349.47;107604;1253;106796;-62
2023/11/03 00:48:57;;;;;;;3.40;2.00;;;;;;;12.43;72.53;100342.52;107432;1257;99171;-62
2023/11/03 00:51:26;;;;;;;4.20;1.60;;;;;;;12.42;72.40;100344.57;107642;1251;99093;-62
2023/11/03 00:53:54;;;;;;;4.90;1.90;;;;;;;12.42;72.74;100339.55;107546;1254;112879;-62
2023/11/03 00:56:23;;;;;;;2.70;1.80;;;;;;;12.43;72.64;100341.28;107630;1253;108912;-62
2023/11/03 00:58:52;;;;;;;2.70;1.80;;;;;;;12.45;72.67;100339.27;107598;1251;108493;-63
2023/11/03 01:01:21;;;;;;;2.60;1.70;;;;;;;12.46;72.65;100332.83;107547;1253;99985;-61
2023/11/03 01:03:49;;;;;;;3.70;1.80;;;;;;;12.44;72.62;100326.02;107607;1255;100843;-62
2023/11/03 01:06:18;;;;;;;7.70;1.80;;;;;;;12.43;72.73;100323.83;107391;1253;113022;-61
2023/11/03 01:08:47;;;;;;;4.40;1.90;;;;;;;12.43;73.05;100323.58;107545;1251;108339;-62
2023/11/03 01:11:15;;;;;;;5.30;1.80;;;;;;;12.45;73.02;100316.20;107587;1255;106648;-62
2023/11/03 01:13:44;;;;;;;4.70;2.30;;;;;;;12.45;72.92;100316.04;107420;1252;99296;-62
2023/11/03 01:16:13;;;;;;;2.30;1.60;;;;;;;12.43;72.81;100313.56;107604;1254;99198;-62
2023/11/03 01:18:42;;;;;;;2.80;1.70;;;;;;;12.42;72.93;100309.92;107607;1251;112463;-62
2023/11/03 01:21:15;;;;;;;6.90;2.10;;;;;;;12.39;73.07;100304.06;107510;1251;108673;-63
2023/11/03 01:23:49;;;;;;;3.40;1.90;;;;;;;12.36;73.01;100307.93;107598;1252;107114;-61
2023/11/03 01:26:17;;;;;;;9.00;2.00;;;;;;;12.35;73.21;100307.54;107589;1251;99314;-63
2023/11/03 01:28:46;;;;;;;3.70;1.60;;;;;;;12.32;73.15;100307.13;107607;1255;99262;-61
2023/11/03 01:31:14;;;;;;;2.70;1.70;;;;;;;12.33;73.02;100302.88;107561;1251;113166;-62
2023/11/03 01:33:44;;;;;;;2.30;1.60;;;;;;;12.33;72.99;100303.92;107436;1253;109909;-61
2023/11/03 01:36:13;;;;;;;4.70;1.90;;;;;;;12.31;72.88;100305.39;107628;1251;109106;-60
2023/11/03 01:38:41;;;;;;;3.70;1.50;;;;;;;12.31;72.90;100310.89;107563;1255;99067;-62
2023/11/03 01:41:10;;;;;;;6.30;2.20;;;;;;;12.31;72.95;100320.23;107619;1253;99837;-61
2023/11/03 01:44:06;;;;;;;3.50;2.00;;;;;;;12.30;73.17;100321.02;107595;1253;113199;-62
2023/11/03 01:46:37;;;;;;;5.50;1.90;;;;;;;12.27;73.12;100319.88;107652;1251;108128;-62
2023/11/03 01:49:07;;;;;;;3.30;1.70;;;;;;;12.29;73.28;100326.02;107642;1251;107617;-60
2023/11/03 01:51:35;;;;;;;3.60;2.00;;;;;;;12.31;73.23;100324.68;107653;1251;99189;-61
2023/11/03 01:54:05;;;;;;;11.50;2.10;;;;;;;12.36;73.41;100326.83;107461;1251;99173;-62
2023/11/03 01:56:36;;;;;;;6.30;1.70;;;;;;;12.42;73.29;100321.91;107645;1251;111719;-63
2023/11/03 01:59:06;;;;;;;4.20;1.70;;;;;;;12.46;73.29;100327.64;107650;1251;109423;-61
2023/11/03 02:01:36;;;;;;;5.50;1.60;;;;;;;12.48;73.13;100324.15;107577;1252;108137;-61
2023/11/03 02:04:05;;;;;;;5.10;1.60;;;;;;;12.49;73.12;100320.79;107437;1252;99194;-62
2023/11/03 02:06:33;;;;;;;3.60;2.10;;;;;;;12.50;73.16;100318.43;107629;1253;99110;-62
2023/11/03 02:09:01;;;;;;;3.90;1.50;;;;;;;12.50;73.29;100315.83;107641;1251;112411;-61
2023/11/03 02:11:31;;;;;;;6.00;2.30;;;;;;;12.52;73.33;100321.09;107597;1252;107731;-61
2023/11/03 02:14:00;;;;;;;16.90;1.60;;;;;;;12.53;73.42;100320.56;107605;1253;108576;-62
2023/11/03 02:16:29;;;;;;;5.90;1.90;;;;;;;12.58;73.75;100317.83;107684;1252;99270;-62
2023/11/03 02:18:58;;;;;;;2.50;1.60;;;;;;;12.61;73.75;100325.92;107613;1251;99366;-62
2023/11/03 02:21:27;;;;;;;8.20;2.10;;;;;;;12.64;73.97;100318.92;107432;1251;112441;-62
2023/11/03 02:23:55;;;;;;;2.70;1.70;;;;;;;12.68;73.82;100314.37;107544;1251;109082;-61
2023/11/03 02:26:23;;;;;;;4.20;1.80;;;;;;;12.72;73.78;100312.67;107532;1251;108281;-62
2023/11/03 02:28:51;;;;;;;3.80;1.80;;;;;;;12.75;73.90;100317.64;107611;1251;99170;-60
2023/11/03 02:31:20;;;;;;;5.70;2.10;;;;;;;12.78;73.78;100321.08;107455;1252;99221;-61
2023/11/03 02:33:49;;;;;;;3.30;2.40;;;;;;;12.81;73.73;100321.14;107590;1251;112628;-61
2023/11/03 02:36:19;;;;;;;8.50;2.40;;;;;;;12.83;73.71;100324.80;107542;1253;108763;-61
2023/11/03 02:38:48;;;;;;;11.50;2.30;;;;;;;12.85;73.88;100326.66;107527;1251;107703;-62
2023/11/03 02:41:16;;;;;;;3.10;1.60;;;;;;;12.85;73.89;100325.73;107524;1251;99259;-62
2023/11/03 02:43:45;;;;;;;8.30;2.70;;;;;;;12.87;73.85;100325.89;107474;1251;99147;-62
2023/11/03 02:46:13;;;;;;;8.90;2.30;;;;;;;12.88;73.80;100329.80;107598;1256;112129;-62
2023/11/03 02:48:42;;;;;;;3.40;2.10;;;;;;;12.87;73.79;100325.78;107552;1251;109773;-62
2023/11/03 02:51:11;;;;;;;5.10;2.00;;;;;;;12.87;73.64;100328.11;107542;1253;108564;-65
2023/11/03 02:53:41;;;;;;;5.10;1.80;;;;;;;12.87;73.90;100323.52;107594;1251;99144;-62
2023/11/03 02:56:09;;;;;;;3.00;1.80;;;;;;;12.88;73.91;100324.00;107598;1251;99182;-62
2023/11/03 02:58:38;;;;;;;3.80;2.10;;;;;;;12.87;73.84;100322.16;107554;1251;112330;-62
2023/11/03 03:01:08;;;;;;;4.70;2.40;;;;;;;12.86;73.83;100318.97;107607;1253;110019;-63
2023/11/03 03:03:36;;;;;;;9.80;2.30;;;;;;;12.87;73.78;100316.36;107607;1253;107397;-62
2023/11/03 03:06:05;;;;;;;5.80;2.80;;;;;;;12.89;73.98;100315.78;107497;1257;99305;-61
2023/11/03 03:08:33;;;;;;;7.70;2.50;;;;;;;12.91;74.19;100315.38;107625;1253;99734;-62
2023/11/03 03:11:01;;;;;;;13.80;2.70;;;;;;;12.94;74.27;100313.67;107646;1253;113140;-62
2023/11/03 03:13:30;;;;;;;10.60;2.70;;;;;;;12.97;75.47;100312.98;107529;1251;109208;-62
2023/11/03 03:15:58;;;;;;;7.60;3.20;;;;;;;13.01;75.46;100307.30;107465;1251;108363;-62
2023/11/03 03:18:27;;;;;;;5.70;3.00;;;;;;;13.06;75.39;100316.48;107365;1251;99176;-61
2023/11/03 03:20:55;;;;;;;3.90;2.40;;;;;;;13.10;75.49;100309.80;107615;1253;99743;-62
2023/11/03 03:23:23;;;;;;;5.60;2.60;;;;;;;13.10;75.11;100305.30;107479;1253;112225;-61
2023/11/03 03:25:52;;;;;;;5.90;2.50;;;;;;;13.07;74.83;100306.63;107434;1253;108013;-62
2023/11/03 03:28:20;;;;;;;7.70;3.20;;;;;;;13.08;74.83;100308.59;107449;1251;108546;-62
2023/11/03 03:30:49;;;;;;;7.60;2.30;;;;;;;13.08;74.74;100301.92;107590;1251;99298;-61
2023/11/03 03:33:18;;;;;;;8.60;2.50;;;;;;;13.06;74.59;100300.27;107581;1253;99079;-63
2023/11/03 03:35:47;;;;;;;4.90;2.40;;;;;;;13.05;74.45;100291.63;107546;1255;112946;-63
2023/11/03 03:38:15;;;;;;;6.00;2.90;;;;;;;13.02;74.60;100290.30;107576;1254;109887;-60
2023/11/03 03:40:43;;;;;;;10.50;3.60;;;;;;;13.02;75.06;100279.16;107680;1251;108490;-63
2023/11/03 03:43:12;;;;;;;7.00;3.30;;;;;;;13.01;75.33;100273.29;107584;1251;99256;-62
2023/11/03 03:45:40;;;;;;;4.20;2.50;;;;;;;13.00;75.72;100272.31;107635;1252;99048;-62
2023/11/03 03:48:09;;;;;;;5.10;2.70;;;;;;;13.01;76.85;100270.62;107612;1251;112837;-61
2023/11/03 03:50:37;;;;;;;6.70;3.10;;;;;;;13.01;76.87;100267.39;107569;1251;109755;-62
2023/11/03 03:53:06;;;;;;;8.20;3.80;;;;;;;13.01;76.85;100268.98;107614;1251;107691;-62
2023/11/03 03:55:34;;;;;;;9.60;3.70;;;;;;;13.02;77.09;100261.02;107494;1253;99182;-62
2023/11/03 03:58:02;;;;;;;12.70;3.60;;;;;;;13.05;77.18;100260.58;107519;1252;99190;-61
2023/11/03 04:00:31;;;;;;;9.50;3.80;;;;;;;13.08;77.39;100254.33;107505;1253;113601;-61
2023/11/03 04:02:59;;;;;;;9.70;3.60;;;;;;;13.10;77.52;100246.98;107436;1253;108665;-61
2023/11/03 04:05:27;;;;;;;11.50;3.20;;;;;;;13.11;78.01;100242.15;107614;1251;108477;-61
2023/11/03 04:07:56;;;;;;;8.20;3.20;;;;;;;13.12;78.12;100234.64;107585;1253;99203;-65
2023/11/03 04:10:24;;;;;;;7.50;3.40;;;;;;;13.14;78.13;100234.60;107608;1251;99064;-62
2023/11/03 04:12:52;;;;;;;8.30;3.50;;;;;;;13.15;78.12;100234.71;107551;1253;113006;-62
2023/11/03 04:15:20;;;;;;;7.90;3.60;;;;;;;13.17;78.12;100239.43;107649;1253;109251;-62
2023/11/03 04:17:49;;;;;;;10.80;4.50;;;;;;;13.18;78.22;100236.02;107564;1251;108090;-65
2023/11/03 04:20:18;;;;;;;8.90;4.30;;;;;;;13.20;78.41;100226.45;107616;1251;99182;-62
2023/11/03 04:22:46;;;;;;;11.60;5.30;;;;;;;13.21;78.24;100216.31;107493;1253;99760;-62
2023/11/03 04:25:14;;;;;;;11.60;4.90;;;;;;;13.19;78.29;100210.04;107619;1253;113053;-62
2023/11/03 04:27:43;;;;;;;11.10;4.30;;;;;;;13.17;78.22;100208.27;107644;1251;108818;-62
2023/11/03 04:30:12;;;;;;;12.00;3.90;;;;;;;13.13;77.87;100207.05;107563;1252;108384;-62
2023/11/03 04:32:40;;;;;;;6.50;2.90;;;;;;;13.09;77.62;100197.43;107569;1253;99278;-63
2023/11/03 04:35:09;;;;;;;8.60;3.00;;;;;;;13.04;77.59;100191.64;107593;1255;99286;-62
2023/11/03 04:37:37;;;;;;;5.30;2.80;;;;;;;12.97;77.56;100188.10;107582;1251;113233;-63
2023/11/03 04:40:07;;;;;;;8.70;4.00;;;;;;;12.90;77.60;100187.41;107594;1253;109821;-62
2023/11/03 04:42:35;;;;;;;9.00;3.20;;;;;;;12.82;77.54;100193.06;107598;1251;107183;-62
2023/11/03 04:45:03;;;;;;;9.50;3.50;;;;;;;12.75;77.43;100186.27;107590;1251;99186;-62
2023/11/03 04:47:31;;;;;;;7.60;3.40;;;;;;;12.65;77.55;100185.16;107610;1251;99171;-62
2023/11/03 04:50:01;;;;;;;10.90;3.20;;;;;;;12.58;77.58;100180.39;107650;1251;113431;-62
2023/11/03 04:52:29;;;;;;;11.60;3.50;;;;;;;12.51;77.60;100181.80;107592;1251;108835;-62
2023/11/03 04:54:58;;;;;;;6.20;3.50;;;;;;;12.42;77.47;100184.14;107500;1254;108168;-61
2023/11/03 04:57:26;;;;;;;10.20;4.40;;;;;;;12.34;77.48;100181.01;107554;1255;99193;-62
2023/11/03 04:59:55;;;;;;;7.20;3.50;;;;;;;12.31;77.56;100181.98;107626;1255;99078;-62
2023/11/03 05:02:23;;;;;;;11.50;3.40;;;;;;;12.28;77.48;100183.85;107601;1256;112171;-62
2023/11/03 05:04:51;;;;;;;12.40;3.50;;;;;;;12.26;77.45;100186.96;107575;1252;109185;-62
2023/11/03 05:07:21;;;;;;;8.20;3.20;;;;;;;12.23;77.48;100191.23;107590;1251;108305;-61
2023/11/03 05:09:49;;;;;;;8.00;3.50;;;;;;;12.21;77.56;100190.12;107615;1251;99035;-61
2023/11/03 05:12:17;;;;;;;10.30;3.90;;;;;;;12.23;77.59;100192.80;107564;1251;99279;-64
2023/11/03 05:14:45;;;;;;;11.60;4.20;;;;;;;12.25;77.66;100194.11;107642;1251;113337;-62
2023/11/03 05:17:13;;;;;;;5.90;3.10;;;;;;;12.26;77.78;100197.15;107599;1251;108496;-61
2023/11/03 05:19:41;;;;;;;10.40;4.40;;;;;;;12.25;77.53;100200.35;107567;1253;108654;-62
2023/11/03 05:22:10;;;;;;;10.40;4.20;;;;;;;12.23;77.62;100203.62;107523;1251;99276;-62
2023/11/03 05:24:38;;;;;;;5.30;3.70;;;;;;;12.23;77.78;100197.88;107580;1251;99843;-61
2023/11/03 05:27:08;;;;;;;12.20;4.50;;;;;;;12.22;78.03;100193.31;107599;1251;113216;-63
2023/11/03 05:29:38;;;;;;;7.60;4.10;;;;;;;12.20;78.27;100194.33;107541;1253;108741;-63
2023/11/03 05:32:07;;;;;;;6.10;3.60;;;;;;;12.19;78.46;100192.71;107550;1252;106716;-62
2023/11/03 05:34:35;;;;;;;9.10;3.60;;;;;;;12.18;78.79;100192.60;107591;1255;99183;-60
2023/11/03 05:37:04;;;;;;;11.30;3.80;;;;;;;12.19;78.88;100199.82;107618;1252;99392;-63
2023/11/03 05:39:33;;;;;;;27.00;4.80;;;;;;;12.22;79.02;100204.76;107637;1251;113116;-61
2023/11/03 05:42:04;;;;;;;6.70;3.80;;;;;;;12.29;78.81;100209.49;107551;1252;109076;-60
2023/11/03 05:44:33;;;;;;;11.20;4.10;;;;;;;12.34;79.09;100209.98;107593;1251;107668;-63
2023/11/03 05:47:02;;;;;;;8.60;3.80;;;;;;;12.42;79.18;100204.88;107541;1252;99280;-61
2023/11/03 05:49:31;;;;;;;10.90;3.70;;;;;;;12.48;79.26;100200.08;107585;1251;99084;-62
2023/11/03 05:52:01;;;;;;;12.40;4.20;;;;;;;12.53;79.07;100197.54;107639;1251;113523;-62
2023/11/03 05:54:29;;;;;;;15.50;4.00;;;;;;;12.57;79.01;100199.01;107602;1251;109047;-62
2023/11/03 05:56:58;;;;;;;12.90;4.10;;;;;;;12.57;79.08;100195.70;107531;1256;107895;-64
2023/11/03 05:59:26;;;;;;;15.90;5.60;;;;;;;12.60;79.14;100194.48;107552;1251;99193;-63
2023/11/03 06:01:55;;;;;;;9.60;4.70;;;;;;;12.68;79.34;100198.58;107578;1251;99797;-63
2023/11/03 06:04:24;;;;;;;19.70;4.40;;;;;;;12.78;79.59;100201.90;107504;1253;112586;-62
2023/11/03 06:06:52;;;;;;;13.60;4.50;;;;;;;12.88;79.32;100208.05;107517;1252;109804;-62
2023/11/03 06:09:22;;;;;;;10.20;4.30;;;;;;;12.97;79.33;100214.99;107547;1253;107487;-63
2023/11/03 06:11:51;;;;;;;10.20;4.40;;;;;;;13.08;79.30;100219.48;107554;1252;99177;-62
2023/11/03 06:14:19;;;;;;;13.90;4.30;;;;;;;13.17;79.20;100219.02;107550;1251;98559;-61
2023/11/03 06:16:47;;;;;;;9.90;3.70;;;;;;;13.27;79.05;100217.53;107521;1253;113194;-62
2023/11/03 06:19:15;;;;;;;14.10;4.10;;;;;;;13.36;78.52;100218.84;107571;1251;109002;-61
2023/11/03 06:21:44;;;;;;;14.90;4.20;;;;;;;13.38;78.40;100218.23;107551;1251;107860;-61
2023/11/03 06:24:12;;;;;;;12.50;4.50;;;;;;;13.43;78.18;100216.94;107506;1253;99268;-61
2023/11/03 06:26:41;;;;;;;12.70;5.00;;;;;;;13.50;78.12;100218.16;107612;1253;99073;-62
2023/11/03 06:29:09;;;;;;;12.30;4.10;;;;;;;13.57;77.86;100213.86;107584;1253;113151;-60
2023/11/03 06:31:38;;;;;;;9.10;4.60;;;;;;;13.65;77.87;100209.75;107598;1251;109060;-62
2023/11/03 06:34:07;;;;;;;10.60;4.10;;;;;;;13.81;77.75;100210.33;107581;1254;109101;-62
2023/11/03 06:36:35;;;;;;;13.60;4.60;;;;;;;13.93;77.69;100217.91;107566;1253;99091;-63
2023/11/03 06:39:15;;;;;;;13.80;5.00;;;;;;;14.07;77.52;100224.71;107565;1253;99845;-61
2023/11/03 06:41:44;;;;;;;15.00;4.10;;;;;;;14.19;77.17;100225.29;107583;1253;113622;-63
2023/11/03 06:44:12;;;;;;;19.70;4.60;;;;;;;14.33;76.94;100225.95;107526;1253;109703;-63
2023/11/03 06:46:41;;;;;;;12.00;6.20;;;;;;;14.46;76.45;100230.27;107569;1253;106985;-62
2023/11/03 06:49:10;;;;;;;15.20;4.90;;;;;;;14.63;76.07;100234.77;107516;1253;99164;-63
2023/11/03 06:51:42;;;;;;;13.70;3.70;;;;;;;14.88;74.49;100236.30;107561;1253;99042;-63
2023/11/03 06:54:11;;;;;;;10.40;4.00;;;;;;;15.05;73.94;100234.89;107576;1253;112737;-63
2023/11/03 06:56:42;;;;;;;10.30;4.20;;;;;;;15.19;73.43;100235.81;107536;1253;109489;-62
2023/11/03 06:59:11;;;;;;;12.60;4.40;;;;;;;15.27;73.03;100228.55;107557;1253;108452;-63
2023/11/03 07:01:39;;;;;;;10.10;3.30;;;;;;;15.29;72.83;100222.44;107560;1253;99281;-61
2023/11/03 07:04:09;;;;;;;14.10;3.70;;;;;;;15.27;72.90;100218.42;107559;1252;99817;-61
2023/11/03 07:06:37;;;;;;;15.10;5.20;;;;;;;15.26;72.72;100214.80;107564;1251;113078;-62
2023/11/03 07:09:05;;;;;;;6.60;3.70;;;;;;;15.28;72.78;100210.55;107599;1253;110077;-62
2023/11/03 07:11:34;;;;;;;15.70;4.30;;;;;;;15.35;72.78;100209.17;107585;1251;107921;-62
2023/11/03 07:14:05;;;;;;;12.80;4.60;;;;;;;15.46;72.60;100211.57;107554;1252;99308;-62
2023/11/03 07:16:33;;;;;;;10.60;3.80;;;;;;;15.55;72.47;100217.73;107497;1253;99318;-60
2023/11/03 07:19:02;;;;;;;8.50;4.30;;;;;;;15.59;72.11;100220.08;107560;1253;112945;-62
2023/11/03 07:21:31;;;;;;;17.60;3.80;;;;;;;15.60;71.98;100213.61;107531;1253;110062;-61
2023/11/03 07:23:59;;;;;;;12.90;4.30;;;;;;;15.62;71.94;100213.77;107521;1251;108774;-61
2023/11/03 07:26:31;;;;;;;14.70;3.90;;;;;;;15.62;71.75;100216.48;107488;1253;99079;-62
2023/11/03 07:28:59;;;;;;;13.40;5.20;;;;;;;15.59;71.49;100217.24;107561;1253;99073;-61
2023/11/03 07:31:29;;;;;;;14.90;4.10;;;;;;;15.53;71.23;100217.20;107586;1251;113195;-62
2023/11/03 07:33:59;;;;;;;13.60;3.90;;;;;;;15.56;71.52;100214.73;107552;1253;108711;-61
2023/11/03 07:36:29;;;;;;;9.80;3.40;;;;;;;15.64;71.06;100222.02;107446;1252;107595;-62
2023/11/03 07:38:58;;;;;;;16.50;4.30;;;;;;;15.68;70.65;100221.94;107440;1252;99091;-62
2023/11/03 07:41:27;;;;;;;11.80;4.00;;;;;;;15.65;70.62;100228.82;107530;1252;99255;-62
2023/11/03 07:43:55;;;;;;;10.00;3.30;;;;;;;15.61;70.84;100220.96;107590;1253;113025;-62
2023/11/03 07:46:23;;;;;;;11.70;3.50;;;;;;;15.74;70.75;100217.45;107588;1252;109834;-62
2023/11/03 07:48:53;;;;;;;9.50;3.70;;;;;;;15.92;70.26;100212.59;107477;1251;108766;-62
2023/11/03 07:51:21;;;;;;;7.50;3.30;;;;;;;16.06;70.20;100210.01;107515;1253;99257;-62
2023/11/03 07:53:49;;;;;;;12.80;4.20;;;;;;;16.24;69.65;100202.11;107518;1251;99093;-61
2023/11/03 07:56:18;;;;;;;8.80;3.10;;;;;;;16.40;68.57;100196.73;107594;1253;113195;-62
2023/11/03 07:59:02;;;;;;;12.20;3.70;;;;;;;16.53;68.24;100200.11;107589;1253;109518;-62
2023/11/03 08:01:30;;;;;;;11.40;3.90;;;;;;;16.51;67.87;100204.02;107531;1251;107973;-62
2023/11/03 08:03:59;;;;;;;13.30;3.40;;;;;;;16.43;67.42;100202.30;107490;1253;99254;-63
2023/11/03 08:06:27;;;;;;;8.70;2.90;;;;;;;16.39;67.87;100198.27;107544;1253;99189;-62
2023/11/03 08:08:56;;;;;;;11.50;3.90;;;;;;;16.38;67.95;100194.76;107557;1253;112609;-63
2023/11/03 08:11:24;;;;;;;9.00;3.40;;;;;;;16.34;68.16;100185.14;107604;1253;109311;-61
2023/11/03 08:13:52;;;;;;;18.20;3.20;;;;;;;16.39;68.01;100185.41;107514;1253;107841;-62
2023/11/03 08:16:20;;;;;;;7.70;2.80;;;;;;;16.35;67.80;100177.97;107515;1253;99890;-62
2023/11/03 08:18:51;;;;;;;12.60;3.50;;;;;;;16.42;67.44;100174.08;107490;1253;99077;-62
2023/11/03 08:21:20;;;;;;;10.30;3.70;;;;;;;16.52;67.24;100165.36;107412;1253;113440;-61
2023/11/03 08:23:49;;;;;;;19.40;4.00;;;;;;;16.73;66.96;100162.46;107579;1251;109281;-62
2023/11/03 08:26:19;;;;;;;8.30;3.10;;;;;;;16.88;66.28;100155.32;107421;1251;107932;-60
2023/11/03 08:28:49;;;;;;;10.90;3.20;;;;;;;16.84;65.75;100155.60;107482;1253;99170;-62
2023/11/03 08:31:19;;;;;;;8.50;3.20;;;;;;;16.77;65.50;100150.35;107452;1252;99267;-61
2023/11/03 08:33:47;;;;;;;17.90;3.70;;;;;;;16.69;65.70;100143.57;107456;1251;113580;-61
2023/11/03 08:36:17;;;;;;;8.80;3.10;;;;;;;16.67;65.77;100139.05;107430;1251;109396;-61
2023/11/03 08:38:47;;;;;;;10.50;3.50;;;;;;;16.64;65.87;100145.10;107496;1251;107301;-64
2023/11/03 08:41:16;;;;;;;9.40;3.80;;;;;;;16.57;66.21;100149.20;107480;1254;99263;-62
2023/11/03 08:43:46;;;;;;;13.60;3.80;;;;;;;16.52;66.41;100153.00;107440;1255;99176;-62
2023/11/03 08:46:15;;;;;;;6.40;2.60;;;;;;;16.48;66.46;100146.00;107478;1256;112156;-61
2023/11/03 08:48:45;;;;;;;8.60;2.90;;;;;;;16.49;66.47;100148.14;107432;1253;110230;-60
2023/11/03 08:51:16;;;;;;;10.70;3.20;;;;;;;16.51;66.73;100151.59;107439;1254;106833;-62
2023/11/03 08:53:44;;;;;;;18.60;3.60;;;;;;;16.60;66.58;100150.25;107474;1252;99192;-63
2023/11/03 08:56:13;;;;;;;12.70;2.70;;;;;;;16.90;66.43;100141.48;107514;1253;99839;-61
2023/11/03 08:58:42;;;;;;;6.30;2.30;;;;;;;17.73;64.19;100135.95;107508;1252;113821;-62
2023/11/03 09:01:11;;;;;;;6.30;2.60;;;;;;;18.30;62.22;100129.61;107516;1253;110048;-61
2023/11/03 09:03:40;;;;;;;10.10;2.50;;;;;;;19.07;59.85;100121.47;107512;1251;107284;-62
2023/11/03 09:06:12;;;;;;;6.60;2.70;;;;;;;19.46;58.18;100122.23;107449;1251;99278;-62
2023/11/03 09:08:40;;;;;;;8.90;1.80;;;;;;;20.12;55.40;100111.25;107480;1253;99184;-61
2023/11/03 09:11:10;;;;;;;7.20;2.00;;;;;;;20.58;53.91;100112.44;107476;1251;112257;-62
2023/11/03 09:13:52;;;;;;;9.00;1.70;;;;;;;21.23;52.49;100110.51;107472;1253;109732;-62
2023/11/03 09:16:23;;;;;;;14.40;2.20;;;;;;;21.91;51.20;100094.73;107440;1253;109361;-63
2023/11/03 09:18:52;;;;;;;8.60;1.80;;;;;;;22.33;49.28;100081.85;107412;1255;99050;-60
2023/11/03 09:21:21;;;;;;;7.60;1.70;;;;;;;22.77;47.95;100074.86;107467;1255;99094;-61
2023/11/03 09:23:51;;;;;;;9.40;1.90;;;;;;;23.08;45.89;100066.58;107472;1251;112155;-62
2023/11/03 09:26:19;;;;;;;7.40;1.60;;;;;;;23.20;45.43;100068.98;107463;1255;108852;-62
2023/11/03 09:28:50;;;;;;;14.10;2.50;;;;;;;23.43;44.67;100068.88;107419;1253;108218;-61
2023/11/03 09:31:20;;;;;;;7.20;2.10;;;;;;;23.65;43.69;100065.64;107393;1253;99087;-63
2023/11/03 09:33:48;;;;;;;4.10;1.40;;;;;;;23.93;43.75;100061.06;107497;1253;99479;-62
2023/11/03 09:36:17;;;;;;;4.00;1.50;;;;;;;24.16;43.11;100054.48;107455;1253;113017;-63
2023/11/03 09:38:45;;;;;;;5.30;1.30;;;;;;;24.01;41.64;100061.70;107506;1251;108350;-62
2023/11/03 09:41:15;;;;;;;7.10;1.50;;;;;;;23.91;42.01;100049.77;107502;1253;107878;-63
2023/11/03 09:43:45;;;;;;;14.30;1.90;;;;;;;24.12;42.32;100046.15;107508;1251;99227;-61
2023/11/03 09:46:18;;;;;;;14.60;2.10;;;;;;;24.20;41.92;100030.05;107398;1253;99179;-62
2023/11/03 09:48:47;;;;;;;4.70;1.60;;;;;;;24.13;41.46;100021.67;107452;1255;113007;-62
2023/11/03 09:51:17;;;;;;;5.60;1.50;;;;;;;23.95;41.21;100028.94;107515;1253;109450;-62
2023/11/03 09:53:50;;;;;;;10.00;3.60;;;;;;;23.62;41.76;100027.86;107471;1253;108292;-62
2023/11/03 09:56:19;;;;;;;3.90;1.80;;;;;;;23.51;42.37;100021.66;107417;1253;99187;-62
2023/11/03 09:58:48;;;;;;;2.70;1.90;;;;;;;23.33;42.53;100023.69;107453;1253;99803;-62
2023/11/03 10:01:17;;;;;;;8.40;1.50;;;;;;;23.07;42.74;100014.90;107441;1253;113652;-62
2023/11/03 10:03:46;;;;;;;9.80;2.00;;;;;;;22.92;42.72;100016.27;107461;1256;108874;-62
2023/11/03 10:06:17;;;;;;;5.80;1.80;;;;;;;22.60;43.53;100009.23;107459;1253;108082;-62
2023/11/03 10:08:45;;;;;;;9.70;2.10;;;;;;;22.10;44.09;100011.54;107437;1254;99158;-61
2023/11/03 10:11:13;;;;;;;8.20;2.10;;;;;;;21.51;45.31;100015.09;107171;1253;384253;-61
2023/11/03 10:13:42;;;;;;;9.60;1.60;;;;;;;21.13;46.03;100019.13;107444;1253;113438;-62
2023/11/03 10:16:11;;;;;;;4.30;1.30;;;;;;;20.99;46.70;100026.36;107466;1253;110055;-61
2023/11/03 10:18:39;;;;;;;10.00;1.90;;;;;;;20.82;46.96;100020.89;107474;1255;107788;-60
2023/11/03 10:21:08;;;;;;;4.60;1.50;;;;;;;20.60;47.41;100017.68;107446;1253;99771;-61
2023/11/03 10:23:37;;;;;;;9.10;1.70;;;;;;;20.38;47.67;100008.66;107517;1251;99091;-61
2023/11/03 10:26:06;;;;;;;7.00;1.90;;;;;;;20.20;48.14;100013.64;107481;1253;113713;-62
2023/11/03 10:28:35;;;;;;;7.40;1.90;;;;;;;20.07;48.50;100005.77;107515;1251;108687;-62
2023/11/03 10:31:04;;;;;;;5.30;1.80;;;;;;;19.91;48.75;100010.26;107472;1251;107505;-62
2023/11/03 10:33:35;;;;;;;5.10;1.70;;;;;;;19.78;48.89;100017.52;107508;1253;99913;-63
2023/11/03 10:36:08;;;;;;;5.70;1.90;;;;;;;19.65;49.33;100020.14;107481;1253;99282;-63
2023/11/03 10:38:37;;;;;;;7.70;1.80;;;;;;;19.54;49.70;100018.16;107445;1253;112581;-63
2023/11/03 10:41:18;;;;;;;15.40;2.10;;;;;;;19.61;49.57;100008.27;107357;1251;109799;-62
2023/11/03 10:43:56;;;;;;;10.70;1.70;;;;;;;19.60;50.09;99999.24;107359;1255;108154;-62
2023/11/03 10:46:34;;;;;;;7.50;2.00;;;;;;;19.63;49.85;99992.48;107280;1251;99267;-64
2023/11/03 10:49:29;;;;;;;8.00;1.70;;;;;;;20.42;48.87;99979.86;107509;1253;99753;-64
2023/11/03 10:52:18;;;;;;;5.10;1.70;;;;;;;21.81;46.59;99958.86;107408;1255;113336;-63
2023/11/03 10:54:57;;;;;;;13.70;2.10;;;;;;;22.83;44.32;99950.72;107433;1253;110015;-62
2023/11/03 10:57:27;;;;;;;11.40;1.60;;;;;;;23.68;43.26;99943.51;107387;1255;107920;-63
2023/11/03 11:00:30;;;;;;;7.20;1.90;;;;;;;23.97;40.85;99943.98;107519;1253;99098;-62
2023/11/03 11:03:07;;;;;;;8.10;2.20;;;;;;;24.36;40.82;99926.80;107595;1251;99197;-62
2023/11/03 11:06:03;;;;;;;7.90;1.50;;;;;;;24.28;39.26;99911.15;107480;1251;113657;-62
2023/11/03 11:08:34;;;;;;;8.00;2.30;;;;;;;23.71;40.42;99898.65;107604;1253;109071;-61
2023/11/03 11:11:03;;;;;;;12.70;2.40;;;;;;;23.31;41.41;99897.75;107551;1251;107316;-62
2023/11/03 11:13:32;;;;;;;10.00;1.80;;;;;;;23.41;42.15;99904.42;107490;1255;99190;-62
2023/11/03 11:16:00;;;;;;;11.10;1.60;;;;;;;23.48;41.79;99901.48;107396;1254;99824;-63
2023/11/03 11:18:34;;;;;;;5.60;1.60;;;;;;;23.38;41.76;99911.89;107410;1252;113209;-61
2023/11/03 11:21:08;;;;;;;13.70;1.80;;;;;;;23.05;41.57;99910.12;107483;1253;109245;-62